createdAt,value
2019-05-19T00:00:50.277Z,15.10
2019-05-19T00:03:22.645Z,15.11
2019-05-19T00:05:54.846Z,15.13
2019-05-19T00:08:27.110Z,15.16
2019-05-19T00:10:59.364Z,15.18
2019-05-19T00:13:31.588Z,15.20
2019-05-19T00:16:04.876Z,15.21
2019-05-19T00:18:37.468Z,15.14
2019-05-19T00:21:09.689Z,15.09
2019-05-19T00:23:41.956Z,15.03
2019-05-19T00:26:14.261Z,14.96
2019-05-19T00:28:46.493Z,14.88
2019-05-19T00:31:18.790Z,14.84
2019-05-19T00:33:51.071Z,14.80
2019-05-19T00:36:23.354Z,14.75
2019-05-19T00:38:55.603Z,14.73
2019-05-19T00:41:27.832Z,14.75
2019-05-19T00:44:00.233Z,14.75
2019-05-19T00:46:32.551Z,14.72
2019-05-19T00:49:04.820Z,14.71
2019-05-19T00:51:37.010Z,14.71
2019-05-19T00:54:09.231Z,14.70
2019-05-19T00:56:41.549Z,14.65
2019-05-19T00:59:15.795Z,14.65
2019-05-19T01:01:48.074Z,14.61
2019-05-19T01:04:20.345Z,14.59
2019-05-19T01:06:52.599Z,14.57
2019-05-19T01:09:24.832Z,14.55
2019-05-19T01:11:57.080Z,14.52
2019-05-19T01:14:29.604Z,14.49
2019-05-19T01:17:02.275Z,14.43
2019-05-19T01:19:34.880Z,14.40
2019-05-19T01:22:07.107Z,14.42
2019-05-19T01:24:39.523Z,14.39
2019-05-19T01:27:11.753Z,14.36
2019-05-19T01:29:43.990Z,14.31
2019-05-19T01:32:16.234Z,14.30
2019-05-19T01:34:48.460Z,14.30
2019-05-19T01:37:20.749Z,14.28
2019-05-19T01:39:53.003Z,14.26
2019-05-19T01:42:25.301Z,14.24
2019-05-19T01:44:57.540Z,14.28
2019-05-19T01:47:29.845Z,14.34
2019-05-19T01:50:17.042Z,14.37
2019-05-19T01:52:35.971Z,14.44
2019-05-19T01:55:08.193Z,14.48
2019-05-19T01:57:42.747Z,14.46
2019-05-19T02:00:15.021Z,14.42
2019-05-19T02:02:47.324Z,14.37
2019-05-19T02:05:19.508Z,14.32
2019-05-19T02:07:51.950Z,14.31
2019-05-19T02:10:24.239Z,14.33
2019-05-19T02:12:56.461Z,14.36
2019-05-19T02:15:28.680Z,14.37
2019-05-19T02:18:00.926Z,14.43
2019-05-19T02:20:34.111Z,14.42
2019-05-19T02:23:06.393Z,14.41
2019-05-19T02:25:38.627Z,14.38
2019-05-19T02:28:10.917Z,14.32
2019-05-19T02:30:43.138Z,14.25
2019-05-19T02:33:15.382Z,14.18
2019-05-19T02:35:47.587Z,14.12
2019-05-19T02:38:20.075Z,14.04
2019-05-19T02:40:52.300Z,14.03
2019-05-19T02:43:24.558Z,13.99
2019-05-19T02:45:56.792Z,13.95
2019-05-19T02:48:28.998Z,13.87
2019-05-19T02:51:01.244Z,13.81
2019-05-19T02:53:33.493Z,13.78
2019-05-19T02:56:05.727Z,13.72
2019-05-19T02:58:38.024Z,13.70
2019-05-19T03:01:10.235Z,13.66
2019-05-19T03:03:42.578Z,13.62
2019-05-19T03:06:14.839Z,13.61
2019-05-19T03:08:47.063Z,13.59
2019-05-19T03:11:19.320Z,13.57
2019-05-19T03:13:51.532Z,13.56
2019-05-19T03:16:23.754Z,13.54
2019-05-19T03:18:55.974Z,13.51
2019-05-19T03:21:28.234Z,13.49
2019-05-19T03:24:00.434Z,13.46
2019-05-19T03:26:32.698Z,13.43
2019-05-19T03:29:04.954Z,13.44
2019-05-19T03:31:37.182Z,13.46
2019-05-19T03:34:09.453Z,13.44
2019-05-19T03:36:41.690Z,13.43
2019-05-19T03:39:13.915Z,13.45
2019-05-19T03:41:46.167Z,13.46
2019-05-19T03:44:18.406Z,13.53
2019-05-19T03:46:50.679Z,13.63
2019-05-19T03:49:22.966Z,13.69
2019-05-19T03:51:55.309Z,13.76
2019-05-19T03:54:27.534Z,13.81
2019-05-19T03:57:00.781Z,13.90
2019-05-19T03:59:34.157Z,13.88
2019-05-19T04:02:06.420Z,13.91
2019-05-19T04:04:38.622Z,14.01
2019-05-19T04:07:10.894Z,14.07
2019-05-19T04:09:43.120Z,14.08
2019-05-19T04:12:15.360Z,14.05
2019-05-19T04:14:47.605Z,14.03
2019-05-19T04:17:20.799Z,14.04
2019-05-19T04:19:53.076Z,14.08
2019-05-19T04:22:25.301Z,14.01
2019-05-19T04:24:57.522Z,13.99
2019-05-19T04:27:29.782Z,13.99
2019-05-19T04:30:02.050Z,13.98
2019-05-19T04:32:34.881Z,14.00
2019-05-19T04:35:07.139Z,13.97
2019-05-19T04:37:39.355Z,14.01
2019-05-19T04:40:11.572Z,14.06
2019-05-19T04:42:43.814Z,14.13
2019-05-19T04:45:16.069Z,14.18
2019-05-19T04:47:48.308Z,14.20
2019-05-19T04:50:20.650Z,14.20
2019-05-19T04:52:52.885Z,14.15
2019-05-19T04:55:25.182Z,14.11
2019-05-19T04:57:57.407Z,14.08
2019-05-19T05:00:29.675Z,14.11
2019-05-19T05:03:01.919Z,14.19
2019-05-19T05:05:34.185Z,14.23
2019-05-19T05:08:06.408Z,14.28
2019-05-19T05:10:38.640Z,14.28
2019-05-19T05:13:10.866Z,14.25
2019-05-19T05:15:43.144Z,14.27
2019-05-19T05:18:17.421Z,14.30
2019-05-19T05:20:49.706Z,14.38
2019-05-19T05:23:22.009Z,14.40
2019-05-19T05:25:54.442Z,14.41
2019-05-19T05:28:26.651Z,14.45
2019-05-19T05:30:59.108Z,14.49
2019-05-19T05:33:31.329Z,14.55
2019-05-19T05:36:03.560Z,14.56
2019-05-19T05:38:35.772Z,14.62
2019-05-19T05:41:08.026Z,14.70
2019-05-19T05:43:41.324Z,14.75
2019-05-19T05:46:13.560Z,14.84
2019-05-19T05:48:45.798Z,14.77
2019-05-19T05:51:18.033Z,14.74
2019-05-19T05:53:50.238Z,14.85
2019-05-19T05:56:22.468Z,14.96
2019-05-19T05:58:54.758Z,14.97
2019-05-19T06:01:26.962Z,15.05
2019-05-19T06:03:59.215Z,15.10
2019-05-19T06:06:33.479Z,15.11
2019-05-19T06:09:05.789Z,15.18
2019-05-19T06:11:38.028Z,15.23
2019-05-19T06:14:10.280Z,15.24
2019-05-19T06:16:43.628Z,15.18
2019-05-19T06:19:15.845Z,15.14
2019-05-19T06:21:48.087Z,15.24
2019-05-19T06:24:20.323Z,15.21
2019-05-19T06:26:52.539Z,15.22
2019-05-19T06:29:24.829Z,15.37
2019-05-19T06:31:57.067Z,15.41
2019-05-19T06:34:29.614Z,15.48
2019-05-19T06:37:02.113Z,15.55
2019-05-19T06:39:34.428Z,15.55
2019-05-19T06:42:06.631Z,15.62
2019-05-19T06:44:38.831Z,15.65
2019-05-19T06:47:11.173Z,15.62
2019-05-19T06:49:43.394Z,15.73
2019-05-19T06:52:15.615Z,15.84
2019-05-19T06:54:47.870Z,15.97
2019-05-19T06:57:20.098Z,15.88
2019-05-19T06:59:52.307Z,15.84
2019-05-19T07:02:24.592Z,15.84
2019-05-19T07:04:56.781Z,15.99
2019-05-19T07:07:29.028Z,16.24
2019-05-19T07:10:02.844Z,16.37
2019-05-19T07:12:36.132Z,16.53
2019-05-19T07:15:08.469Z,16.53
2019-05-19T07:17:40.738Z,16.52
2019-05-19T07:20:12.965Z,16.39
2019-05-19T07:22:45.191Z,16.31
2019-05-19T07:25:17.288Z,16.34
2019-05-19T07:27:49.631Z,16.32
2019-05-19T07:30:21.922Z,16.21
2019-05-19T07:32:54.178Z,16.18
2019-05-19T07:35:26.497Z,16.14
2019-05-19T07:37:58.924Z,16.27
2019-05-19T07:40:31.157Z,16.35
2019-05-19T07:43:03.395Z,16.56
2019-05-19T07:45:35.706Z,16.60
2019-05-19T07:48:07.972Z,16.63
2019-05-19T07:50:40.142Z,16.63
2019-05-19T07:53:12.420Z,16.57
2019-05-19T07:55:44.662Z,16.69
2019-05-19T07:58:16.937Z,16.83
2019-05-19T08:00:49.187Z,16.81
2019-05-19T08:03:21.404Z,16.86
2019-05-19T08:05:56.794Z,16.84
2019-05-19T08:08:27.561Z,16.91
2019-05-19T08:10:59.805Z,17.08
2019-05-19T08:13:32.097Z,17.18
2019-05-19T08:16:04.441Z,17.35
2019-05-19T08:18:36.643Z,17.55
2019-05-19T08:21:08.881Z,17.75
2019-05-19T08:23:41.132Z,18.00
2019-05-19T08:26:13.410Z,17.98
2019-05-19T08:28:45.720Z,18.07
2019-05-19T08:31:17.938Z,18.19
2019-05-19T08:33:50.219Z,18.33
2019-05-19T08:36:22.471Z,18.31
2019-05-19T08:38:54.584Z,18.55
2019-05-19T08:41:26.828Z,18.87
2019-05-19T08:43:59.128Z,19.25
2019-05-19T08:46:31.382Z,19.40
2019-05-19T08:49:03.785Z,19.42
2019-05-19T08:51:38.253Z,19.12
2019-05-19T08:54:15.136Z,19.00
2019-05-19T08:56:44.441Z,19.24
2019-05-19T08:59:16.988Z,19.28
2019-05-19T09:01:49.215Z,19.20
2019-05-19T09:04:21.477Z,19.21
2019-05-19T09:06:53.778Z,19.42
2019-05-19T09:09:26.192Z,19.53
2019-05-19T09:11:58.437Z,19.60
2019-05-19T09:14:30.724Z,19.88
2019-05-19T09:17:03.025Z,19.86
2019-05-19T09:19:35.558Z,19.84
2019-05-19T09:22:07.801Z,19.87
2019-05-19T09:24:40.032Z,20.03
2019-05-19T09:27:12.408Z,19.88
2019-05-19T09:29:44.648Z,19.67
2019-05-19T09:32:16.873Z,19.74
2019-05-19T09:34:49.178Z,19.65
2019-05-19T09:37:21.453Z,19.70
2019-05-19T09:39:53.744Z,19.60
2019-05-19T09:42:26.010Z,19.63
2019-05-19T09:44:58.381Z,19.72
2019-05-19T09:47:30.702Z,19.59
2019-05-19T09:50:02.946Z,19.40
2019-05-19T09:52:35.163Z,19.37
2019-05-19T09:55:07.236Z,19.32
2019-05-19T09:57:40.507Z,19.32
2019-05-19T10:00:12.805Z,19.48
2019-05-19T10:02:45.117Z,19.64
2019-05-19T10:05:17.561Z,19.90
2019-05-19T10:07:49.883Z,20.03
2019-05-19T10:10:22.182Z,20.20
2019-05-19T10:12:54.602Z,20.37
2019-05-19T10:15:26.906Z,20.23
2019-05-19T10:17:59.141Z,19.92
2019-05-19T10:20:31.407Z,19.56
2019-05-19T10:23:03.756Z,19.39
2019-05-19T10:25:36.067Z,19.35
2019-05-19T10:28:08.329Z,19.55
2019-05-19T10:30:40.886Z,19.50
2019-05-19T10:33:13.118Z,19.51
2019-05-19T10:35:45.368Z,19.53
2019-05-19T10:38:17.939Z,19.58
2019-05-19T10:40:51.312Z,19.75
2019-05-19T10:43:23.768Z,19.68
2019-05-19T10:45:56.019Z,19.54
2019-05-19T10:48:28.328Z,19.55
2019-05-19T10:51:00.557Z,19.64
2019-05-19T10:53:32.838Z,19.78
2019-05-19T10:56:05.316Z,19.83
2019-05-19T10:58:37.621Z,19.73
2019-05-19T11:01:09.898Z,19.80
2019-05-19T11:03:42.361Z,19.71
2019-05-19T11:06:14.724Z,19.77
2019-05-19T11:08:47.022Z,19.77
2019-05-19T11:11:19.309Z,19.68
2019-05-19T11:13:51.672Z,19.59
2019-05-19T11:16:23.891Z,19.68
2019-05-19T11:18:56.124Z,19.74
2019-05-19T11:21:28.397Z,19.84
2019-05-19T11:24:00.752Z,20.08
2019-05-19T11:26:33.117Z,20.33
2019-05-19T11:29:05.359Z,20.63
2019-05-19T11:31:37.619Z,20.90
2019-05-19T11:34:09.986Z,21.10
2019-05-19T11:36:42.309Z,21.23
2019-05-19T11:39:14.544Z,21.39
2019-05-19T11:41:46.795Z,21.64
2019-05-19T11:44:19.198Z,22.00
2019-05-19T11:46:51.429Z,22.20
2019-05-19T11:49:23.721Z,22.60
2019-05-19T11:51:55.920Z,23.18
2019-05-19T11:54:28.187Z,24.51
2019-05-19T11:57:00.566Z,25.10
2019-05-19T11:59:32.804Z,26.52
2019-05-19T12:02:04.858Z,27.69
2019-05-19T12:04:37.740Z,28.20
2019-05-19T12:07:10.564Z,28.68
2019-05-19T12:09:43.468Z,29.51
2019-05-19T12:12:16.307Z,29.85
2019-05-19T12:14:49.351Z,29.57
2019-05-19T12:17:22.169Z,30.01
2019-05-19T12:19:55.270Z,30.66
2019-05-19T12:22:28.205Z,31.25
2019-05-19T12:25:01.044Z,31.89
2019-05-19T12:27:33.896Z,32.03
2019-05-19T12:30:06.724Z,32.14
2019-05-19T12:32:39.775Z,32.62
2019-05-19T12:35:12.602Z,33.10
2019-05-19T12:37:45.548Z,33.44
2019-05-19T12:40:18.431Z,33.46
2019-05-19T12:42:51.385Z,33.26
2019-05-19T12:45:26.691Z,33.76
2019-05-19T12:47:59.543Z,33.77
2019-05-19T12:50:32.353Z,33.70
2019-05-19T12:53:05.320Z,33.93
2019-05-19T12:55:38.056Z,34.01
2019-05-19T12:58:11.500Z,33.21
2019-05-19T13:00:44.386Z,32.43
2019-05-19T13:03:18.857Z,31.67
2019-05-19T13:05:51.791Z,30.49
2019-05-19T13:08:24.797Z,28.58
2019-05-19T13:10:57.447Z,27.20
2019-05-19T13:13:30.237Z,27.40
2019-05-19T13:16:03.140Z,27.99
2019-05-19T13:18:38.255Z,29.08
2019-05-19T13:21:11.076Z,30.21
2019-05-19T13:23:43.940Z,31.02
2019-05-19T13:26:16.811Z,31.76
2019-05-19T13:28:49.680Z,32.86
2019-05-19T13:31:24.542Z,34.04
2019-05-19T13:33:57.482Z,34.40
2019-05-19T13:36:30.336Z,34.17
2019-05-19T13:39:03.190Z,33.10
2019-05-19T13:41:36.983Z,32.06
2019-05-19T13:44:09.858Z,30.36
2019-05-19T13:46:42.649Z,29.45
2019-05-19T13:49:15.603Z,30.40
2019-05-19T13:51:48.420Z,31.45
2019-05-19T13:54:21.316Z,31.92
2019-05-19T13:56:54.181Z,32.73
2019-05-19T13:59:26.980Z,33.31
2019-05-19T14:01:59.850Z,32.88
2019-05-19T14:04:32.927Z,31.25
2019-05-19T14:07:05.914Z,29.73
2019-05-19T14:09:38.226Z,28.55
2019-05-19T14:12:10.493Z,27.75
2019-05-19T14:14:42.702Z,27.18
2019-05-19T14:17:15.158Z,26.71
2019-05-19T14:19:47.433Z,26.37
2019-05-19T14:22:19.687Z,26.26
2019-05-19T14:24:51.928Z,25.85
2019-05-19T14:27:30.580Z,25.80
2019-05-19T14:29:58.197Z,25.72
2019-05-19T14:32:30.548Z,25.69
2019-05-19T14:35:02.787Z,25.53
2019-05-19T14:37:35.004Z,25.43
2019-05-19T14:40:07.495Z,25.24
2019-05-19T14:42:41.764Z,24.98
2019-05-19T14:45:14.084Z,24.80
2019-05-19T14:47:46.314Z,24.65
2019-05-19T14:50:18.604Z,24.55
2019-05-19T14:52:50.851Z,24.30
2019-05-19T14:55:23.088Z,24.08
2019-05-19T14:57:55.382Z,24.14
2019-05-19T15:00:27.616Z,24.30
2019-05-19T15:02:59.838Z,23.98
2019-05-19T15:05:32.142Z,23.92
2019-05-19T15:08:04.810Z,23.86
2019-05-19T15:10:37.265Z,23.77
2019-05-19T15:13:09.533Z,23.76
2019-05-19T15:15:41.781Z,23.72
2019-05-19T15:18:16.384Z,23.54
2019-05-19T15:20:48.589Z,23.18
2019-05-19T15:23:20.874Z,22.96
2019-05-19T15:25:53.072Z,22.75
2019-05-19T15:28:25.314Z,22.55
2019-05-19T15:30:57.592Z,22.37
2019-05-19T15:33:37.755Z,22.31
2019-05-19T15:36:03.941Z,22.16
2019-05-19T15:38:36.224Z,21.93
2019-05-19T15:41:08.482Z,21.80
2019-05-19T15:43:40.688Z,21.77
2019-05-19T15:46:12.948Z,21.72
2019-05-19T15:48:45.230Z,21.54
2019-05-19T15:51:27.841Z,21.43
2019-05-19T15:53:51.435Z,21.38
2019-05-19T15:56:23.677Z,21.38
2019-05-19T15:58:56.002Z,21.40
2019-05-19T16:01:28.229Z,21.48
2019-05-19T16:04:00.446Z,21.43
2019-05-19T16:06:32.685Z,21.36
2019-05-19T16:09:04.934Z,21.38
2019-05-19T16:11:38.787Z,21.38
2019-05-19T16:14:11.026Z,21.47
2019-05-19T16:16:43.280Z,21.45
2019-05-19T16:19:15.550Z,21.33
2019-05-19T16:21:47.953Z,21.45
2019-05-19T16:24:20.264Z,21.61
2019-05-19T16:26:52.947Z,21.64
2019-05-19T16:29:29.742Z,21.74
2019-05-19T16:32:02.018Z,21.90
2019-05-19T16:34:35.994Z,21.91
2019-05-19T16:37:08.522Z,21.89
2019-05-19T16:39:41.445Z,21.84
2019-05-19T16:42:13.676Z,21.64
2019-05-19T16:44:45.988Z,21.61
2019-05-19T16:47:18.261Z,21.76
2019-05-19T16:49:51.514Z,21.82
2019-05-19T16:52:23.870Z,22.27
2019-05-19T16:54:56.203Z,23.15
2019-05-19T16:57:28.692Z,24.38
2019-05-19T17:00:00.708Z,25.27
2019-05-19T17:02:34.718Z,25.68
2019-05-19T17:05:07.007Z,26.11
2019-05-19T17:07:39.570Z,26.41
2019-05-19T17:10:11.848Z,26.12
2019-05-19T17:12:44.183Z,25.84
2019-05-19T17:15:17.585Z,24.94
2019-05-19T17:17:49.636Z,23.79
2019-05-19T17:20:22.116Z,22.87
2019-05-19T17:22:54.648Z,22.56
2019-05-19T17:25:27.699Z,22.54
2019-05-19T17:28:00.024Z,21.92
2019-05-19T17:30:32.719Z,21.16
2019-05-19T17:33:04.994Z,20.54
2019-05-19T17:35:37.319Z,20.11
2019-05-19T17:38:09.575Z,19.70
2019-05-19T17:40:41.884Z,19.21
2019-05-19T17:43:14.123Z,18.90
2019-05-19T17:45:46.568Z,18.71
2019-05-19T17:48:26.065Z,18.60
2019-05-19T17:50:52.786Z,18.11
2019-05-19T17:53:25.012Z,17.68
2019-05-19T17:55:57.349Z,17.43
2019-05-19T17:58:29.662Z,17.19
2019-05-19T18:01:02.152Z,16.89
2019-05-19T18:03:34.646Z,16.62
2019-05-19T18:06:06.864Z,16.45
2019-05-19T18:08:39.155Z,16.31
2019-05-19T18:11:11.420Z,16.07
2019-05-19T18:13:43.729Z,15.93
2019-05-19T18:16:15.941Z,15.84
2019-05-19T18:18:48.195Z,15.81
2019-05-19T18:21:20.430Z,15.73
2019-05-19T18:23:52.660Z,15.70
2019-05-19T18:26:24.932Z,15.84
2019-05-19T18:28:57.159Z,15.86
2019-05-19T18:31:31.247Z,15.80
2019-05-19T18:34:03.959Z,15.76
2019-05-19T18:36:36.205Z,15.67
2019-05-19T18:39:08.755Z,15.74
2019-05-19T18:41:41.024Z,15.81
2019-05-19T18:44:13.274Z,15.78
2019-05-19T18:46:45.517Z,15.77
2019-05-19T18:49:17.742Z,15.69
2019-05-19T18:51:49.983Z,15.49
2019-05-19T18:54:22.291Z,15.41
2019-05-19T18:56:54.552Z,15.30
2019-05-19T18:59:26.837Z,15.27
2019-05-19T19:02:01.361Z,15.27
2019-05-19T19:04:33.908Z,15.25
2019-05-19T19:07:06.117Z,15.35
2019-05-19T19:09:38.409Z,15.36
2019-05-19T19:12:10.749Z,15.30
2019-05-19T19:14:42.979Z,15.29
2019-05-19T19:17:15.272Z,15.34
2019-05-19T19:19:47.523Z,15.33
2019-05-19T19:22:21.795Z,15.27
2019-05-19T19:24:54.074Z,15.37
2019-05-19T19:27:28.559Z,15.54
2019-05-19T19:30:04.005Z,15.65
2019-05-19T19:32:34.861Z,15.63
2019-05-19T19:35:07.133Z,15.53
2019-05-19T19:37:39.419Z,15.59
2019-05-19T19:40:11.724Z,15.54
2019-05-19T19:42:44.057Z,15.51
2019-05-19T19:45:16.350Z,15.43
2019-05-19T19:47:48.600Z,15.46
2019-05-19T19:50:20.844Z,15.55
2019-05-19T19:52:53.040Z,15.54
2019-05-19T19:55:25.286Z,15.41
2019-05-19T19:57:57.574Z,15.43
2019-05-19T20:00:29.913Z,15.40
2019-05-19T20:03:02.209Z,15.37
2019-05-19T20:05:34.475Z,15.43
2019-05-19T20:08:06.946Z,15.42
2019-05-19T20:10:39.241Z,15.42
2019-05-19T20:13:11.534Z,15.33
2019-05-19T20:15:43.968Z,15.31
2019-05-19T20:18:16.413Z,15.22
2019-05-19T20:20:48.843Z,15.10
2019-05-19T20:23:21.124Z,15.03
2019-05-19T20:25:53.438Z,14.98
2019-05-19T20:28:25.688Z,15.00
2019-05-19T20:30:58.058Z,14.96
2019-05-19T20:33:30.549Z,14.94
2019-05-19T20:36:02.914Z,14.94
2019-05-19T20:38:35.173Z,14.97
2019-05-19T20:41:07.450Z,14.97
2019-05-19T20:43:39.848Z,14.96
2019-05-19T20:46:12.082Z,14.91
2019-05-19T20:48:44.357Z,14.85
2019-05-19T20:51:16.611Z,14.82
2019-05-19T20:53:49.013Z,14.73
2019-05-19T20:56:21.270Z,14.76
2019-05-19T20:58:53.574Z,14.75
2019-05-19T21:01:26.066Z,14.73
2019-05-19T21:03:58.304Z,14.69
2019-05-19T21:06:30.632Z,14.74
2019-05-19T21:09:02.873Z,14.73
2019-05-19T21:11:36.565Z,14.67
2019-05-19T21:14:08.834Z,14.71
2019-05-19T21:16:41.130Z,14.75
2019-05-19T21:19:15.075Z,14.69
2019-05-19T21:21:47.292Z,14.69
2019-05-19T21:24:19.527Z,14.65
2019-05-19T21:26:51.823Z,14.61
2019-05-19T21:29:24.102Z,14.55
2019-05-19T21:31:56.315Z,14.46
2019-05-19T21:34:28.570Z,14.36
2019-05-19T21:37:00.796Z,14.34
2019-05-19T21:39:33.024Z,14.33
2019-05-19T21:42:05.337Z,14.31
2019-05-19T21:44:37.645Z,14.32
2019-05-19T21:47:09.889Z,14.35
2019-05-19T21:49:42.136Z,14.40
2019-05-19T21:52:14.410Z,14.38
2019-05-19T21:54:46.655Z,14.36
2019-05-19T21:57:18.919Z,14.48
2019-05-19T21:59:51.319Z,14.46
2019-05-19T22:02:23.601Z,14.45
2019-05-19T22:04:55.883Z,14.43
2019-05-19T22:07:28.104Z,14.46
2019-05-19T22:10:00.343Z,14.55
2019-05-19T22:12:32.617Z,14.49
2019-05-19T22:15:05.903Z,14.47
2019-05-19T22:17:38.330Z,14.53
2019-05-19T22:20:10.548Z,14.59
2019-05-19T22:22:43.891Z,14.62
2019-05-19T22:25:15.998Z,14.57
2019-05-19T22:27:48.338Z,14.56
2019-05-19T22:30:20.610Z,14.60
2019-05-19T22:32:52.853Z,14.67
2019-05-19T22:35:25.095Z,14.69
2019-05-19T22:37:57.427Z,14.58
2019-05-19T22:40:29.457Z,14.44
2019-05-19T22:43:01.699Z,14.38
2019-05-19T22:45:33.940Z,14.31
2019-05-19T22:48:06.167Z,14.35
2019-05-19T22:50:38.444Z,14.40
2019-05-19T22:53:10.664Z,14.40
2019-05-19T22:55:42.866Z,14.39
2019-05-19T22:58:15.155Z,14.27
2019-05-19T23:00:47.402Z,14.17
2019-05-19T23:03:19.639Z,14.07
2019-05-19T23:05:51.885Z,14.04
2019-05-19T23:08:23.963Z,14.02
2019-05-19T23:10:56.170Z,14.03
2019-05-19T23:13:28.577Z,14.12
2019-05-19T23:16:00.872Z,14.20
2019-05-19T23:18:33.382Z,14.21
2019-05-19T23:21:05.631Z,14.23
2019-05-19T23:23:37.937Z,14.17
2019-05-19T23:26:10.160Z,14.18
2019-05-19T23:28:43.449Z,14.24
2019-05-19T23:31:15.664Z,14.24
2019-05-19T23:33:47.892Z,14.13
2019-05-19T23:36:20.121Z,14.02
2019-05-19T23:38:52.358Z,14.00
2019-05-19T23:41:24.669Z,13.96
2019-05-19T23:43:56.959Z,13.90
2019-05-19T23:46:30.021Z,13.94
2019-05-19T23:49:02.322Z,14.01
2019-05-19T23:51:34.583Z,14.05
2019-05-19T23:54:07.877Z,13.96
2019-05-19T23:56:40.124Z,13.89
2019-05-19T23:59:12.345Z,13.92
